sensor_id;sensor_type;location;lat;lon;timestamp;temperature;humidity
3860;DHT22;1945;52.036;8.614;2024-03-23T00:52:08;7.50;99.90
3860;DHT22;1945;52.036;8.614;2024-03-23T00:54:34;7.60;99.90
3860;DHT22;1945;52.036;8.614;2024-03-23T00:57:01;7.50;99.90
3860;DHT22;1945;52.036;8.614;2024-03-23T00:59:27;7.50;99.90
3860;DHT22;1945;52.036;8.614;2024-03-23T01:01:54;7.50;99.90
3860;DHT22;1945;52.036;8.614;2024-03-23T01:04:20;7.50;99.90
3860;DHT22;1945;52.036;8.614;2024-03-23T01:06:47;7.50;99.90
3860;DHT22;1945;52.036;8.614;2024-03-23T01:09:14;7.50;99.90
3860;DHT22;1945;52.036;8.614;2024-03-23T01:11:41;7.40;99.90
3860;DHT22;1945;52.036;8.614;2024-03-23T01:14:07;7.60;99.90
3860;DHT22;1945;52.036;8.614;2024-03-23T01:16:33;7.40;99.90
3860;DHT22;1945;52.036;8.614;2024-03-23T01:18:59;7.40;99.90
3860;DHT22;1945;52.036;8.614;2024-03-23T01:21:26;7.40;99.90
3860;DHT22;1945;52.036;8.614;2024-03-23T01:23:52;7.40;99.90
3860;DHT22;1945;52.036;8.614;2024-03-23T01:26:20;7.40;99.90
3860;DHT22;1945;52.036;8.614;2024-03-23T01:28:45;7.30;99.90
3860;DHT22;1945;52.036;8.614;2024-03-23T01:31:12;7.40;1.00
3860;DHT22;1945;52.036;8.614;2024-03-23T01:33:38;7.30;1.00
3860;DHT22;1945;52.036;8.614;2024-03-23T01:36:07;7.40;1.00
3860;DHT22;1945;52.036;8.614;2024-03-23T01:38:34;7.40;1.00
3860;DHT22;1945;52.036;8.614;2024-03-23T01:41:02;7.40;1.00
3860;DHT22;1945;52.036;8.614;2024-03-23T01:43:30;7.30;1.00
3860;DHT22;1945;52.036;8.614;2024-03-23T01:45:56;7.30;1.00
3860;DHT22;1945;52.036;8.614;2024-03-23T01:48:22;7.30;1.00
3860;DHT22;1945;52.036;8.614;2024-03-23T01:50:50;7.30;1.00
3860;DHT22;1945;52.036;8.614;2024-03-23T01:53:16;7.30;1.00
3860;DHT22;1945;52.036;8.614;2024-03-23T01:55:45;7.20;1.00
3860;DHT22;1945;52.036;8.614;2024-03-23T01:58:10;7.20;1.00
3860;DHT22;1945;52.036;8.614;2024-03-23T02:00:38;7.20;1.00
3860;DHT22;1945;52.036;8.614;2024-03-23T02:03:22;7.20;1.00
3860;DHT22;1945;52.036;8.614;2024-03-23T02:05:48;7.20;1.00
3860;DHT22;1945;52.036;8.614;2024-03-23T02:08:14;7.20;1.00
3860;DHT22;1945;52.036;8.614;2024-03-23T02:10:41;7.20;1.00
3860;DHT22;1945;52.036;8.614;2024-03-23T02:13:07;7.20;1.00
3860;DHT22;1945;52.036;8.614;2024-03-23T02:15:34;7.20;1.00
3860;DHT22;1945;52.036;8.614;2024-03-23T02:18:01;7.20;1.00
3860;DHT22;1945;52.036;8.614;2024-03-23T02:20:28;7.10;1.00
3860;DHT22;1945;52.036;8.614;2024-03-23T02:22:55;7.20;1.00
3860;DHT22;1945;52.036;8.614;2024-03-23T02:25:21;7.20;1.00
3860;DHT22;1945;52.036;8.614;2024-03-23T02:27:47;7.20;1.00
3860;DHT22;1945;52.036;8.614;2024-03-23T02:30:15;7.20;1.00
3860;DHT22;1945;52.036;8.614;2024-03-23T02:32:40;7.20;1.00
3860;DHT22;1945;52.036;8.614;2024-03-23T02:35:07;7.20;1.00
3860;DHT22;1945;52.036;8.614;2024-03-23T02:37:33;7.20;1.00
3860;DHT22;1945;52.036;8.614;2024-03-23T02:40:01;7.20;1.00
3860;DHT22;1945;52.036;8.614;2024-03-23T02:42:26;7.20;1.00
3860;DHT22;1945;52.036;8.614;2024-03-23T02:44:53;7.10;1.00
3860;DHT22;1945;52.036;8.614;2024-03-23T02:47:19;7.10;1.00
3860;DHT22;1945;52.036;8.614;2024-03-23T02:49:46;7.10;1.00
3860;DHT22;1945;52.036;8.614;2024-03-23T02:52:12;7.00;1.00
3860;DHT22;1945;52.036;8.614;2024-03-23T02:54:38;7.00;1.00
3860;DHT22;1945;52.036;8.614;2024-03-23T02:57:05;7.00;1.00
3860;DHT22;1945;52.036;8.614;2024-03-23T02:59:32;7.00;1.00
3860;DHT22;1945;52.036;8.614;2024-03-23T03:01:58;7.00;1.00
3860;DHT22;1945;52.036;8.614;2024-03-23T03:04:25;7.00;99.90
3860;DHT22;1945;52.036;8.614;2024-03-23T03:06:51;6.90;99.90
3860;DHT22;1945;52.036;8.614;2024-03-23T03:09:17;6.90;99.90
3860;DHT22;1945;52.036;8.614;2024-03-23T03:11:43;6.60;99.90
3860;DHT22;1945;52.036;8.614;2024-03-23T03:14:11;6.80;99.90
3860;DHT22;1945;52.036;8.614;2024-03-23T03:16:36;6.80;99.90
3860;DHT22;1945;52.036;8.614;2024-03-23T03:19:03;6.80;99.90
3860;DHT22;1945;52.036;8.614;2024-03-23T03:21:29;6.80;99.90
3860;DHT22;1945;52.036;8.614;2024-03-23T03:23:56;6.70;99.90
3860;DHT22;1945;52.036;8.614;2024-03-23T03:26:22;6.80;99.90
3860;DHT22;1945;52.036;8.614;2024-03-23T03:28:49;6.70;99.90
3860;DHT22;1945;52.036;8.614;2024-03-23T03:31:17;6.80;99.90
3860;DHT22;1945;52.036;8.614;2024-03-23T03:33:44;6.80;99.90
3860;DHT22;1945;52.036;8.614;2024-03-23T03:36:10;6.80;99.90
3860;DHT22;1945;52.036;8.614;2024-03-23T03:38:37;6.80;99.90
3860;DHT22;1945;52.036;8.614;2024-03-23T03:41:04;6.80;99.90
3860;DHT22;1945;52.036;8.614;2024-03-23T03:43:31;6.70;99.90
3860;DHT22;1945;52.036;8.614;2024-03-23T03:45:58;6.80;99.90
3860;DHT22;1945;52.036;8.614;2024-03-23T03:48:26;6.80;99.90
3860;DHT22;1945;52.036;8.614;2024-03-23T03:50:53;6.70;99.90
3860;DHT22;1945;52.036;8.614;2024-03-23T03:53:20;6.70;99.90
3860;DHT22;1945;52.036;8.614;2024-03-23T03:55:45;6.70;1.00
3860;DHT22;1945;52.036;8.614;2024-03-23T03:58:12;6.60;1.00
3860;DHT22;1945;52.036;8.614;2024-03-23T04:00:38;6.60;1.00
3860;DHT22;1945;52.036;8.614;2024-03-23T04:03:05;6.60;1.00
3860;DHT22;1945;52.036;8.614;2024-03-23T04:05:32;6.60;1.00
3860;DHT22;1945;52.036;8.614;2024-03-23T04:07:58;7.00;1.00
3860;DHT22;1945;52.036;8.614;2024-03-23T04:10:24;6.50;1.00
3860;DHT22;1945;52.036;8.614;2024-03-23T04:12:52;6.50;1.00
3860;DHT22;1945;52.036;8.614;2024-03-23T04:15:17;6.50;1.00
3860;DHT22;1945;52.036;8.614;2024-03-23T04:17:44;6.50;1.00
3860;DHT22;1945;52.036;8.614;2024-03-23T04:20:10;6.50;1.00
3860;DHT22;1945;52.036;8.614;2024-03-23T04:22:41;6.40;1.00
3860;DHT22;1945;52.036;8.614;2024-03-23T04:25:06;6.40;1.00
3860;DHT22;1945;52.036;8.614;2024-03-23T04:27:33;6.40;1.00
3860;DHT22;1945;52.036;8.614;2024-03-23T04:29:59;6.30;1.00
3860;DHT22;1945;52.036;8.614;2024-03-23T04:32:26;6.30;99.90
3860;DHT22;1945;52.036;8.614;2024-03-23T04:34:53;6.30;1.00
3860;DHT22;1945;52.036;8.614;2024-03-23T04:37:19;6.30;1.00
3860;DHT22;1945;52.036;8.614;2024-03-23T04:39:47;6.30;1.00
3860;DHT22;1945;52.036;8.614;2024-03-23T04:42:15;6.20;1.00
3860;DHT22;1945;52.036;8.614;2024-03-23T04:44:41;6.30;1.00
3860;DHT22;1945;52.036;8.614;2024-03-23T04:47:08;6.30;1.00
3860;DHT22;1945;52.036;8.614;2024-03-23T04:49:35;6.30;1.00
3860;DHT22;1945;52.036;8.614;2024-03-23T04:52:03;6.20;1.00
3860;DHT22;1945;52.036;8.614;2024-03-23T04:54:30;6.20;1.00
3860;DHT22;1945;52.036;8.614;2024-03-23T04:56:59;6.30;1.00
3860;DHT22;1945;52.036;8.614;2024-03-23T04:59:26;6.30;1.00
3860;DHT22;1945;52.036;8.614;2024-03-23T05:01:51;6.30;1.00
3860;DHT22;1945;52.036;8.614;2024-03-23T05:04:18;6.30;1.00
3860;DHT22;1945;52.036;8.614;2024-03-23T05:06:44;6.20;1.00
3860;DHT22;1945;52.036;8.614;2024-03-23T05:09:10;6.20;1.00
3860;DHT22;1945;52.036;8.614;2024-03-23T05:11:37;6.20;1.00
3860;DHT22;1945;52.036;8.614;2024-03-23T05:14:05;6.20;1.00
3860;DHT22;1945;52.036;8.614;2024-03-23T05:16:31;6.10;1.00
3860;DHT22;1945;52.036;8.614;2024-03-23T05:18:57;6.10;1.00
3860;DHT22;1945;52.036;8.614;2024-03-23T05:21:23;6.10;1.00
3860;DHT22;1945;52.036;8.614;2024-03-23T05:23:50;6.10;1.00
3860;DHT22;1945;52.036;8.614;2024-03-23T05:26:16;6.10;99.90
3860;DHT22;1945;52.036;8.614;2024-03-23T05:28:43;6.10;99.90
3860;DHT22;1945;52.036;8.614;2024-03-23T05:31:10;6.10;99.90
3860;DHT22;1945;52.036;8.614;2024-03-23T05:33:37;6.10;99.90
3860;DHT22;1945;52.036;8.614;2024-03-23T05:36:04;6.10;99.90
3860;DHT22;1945;52.036;8.614;2024-03-23T05:38:31;6.10;99.90
3860;DHT22;1945;52.036;8.614;2024-03-23T05:40:58;6.10;99.90
3860;DHT22;1945;52.036;8.614;2024-03-23T05:43:25;6.20;99.90
3860;DHT22;1945;52.036;8.614;2024-03-23T05:45:54;6.10;1.00
3860;DHT22;1945;52.036;8.614;2024-03-23T05:48:21;6.00;1.00
3860;DHT22;1945;52.036;8.614;2024-03-23T05:50:48;6.10;1.00
3860;DHT22;1945;52.036;8.614;2024-03-23T05:53:15;6.10;1.00
3860;DHT22;1945;52.036;8.614;2024-03-23T05:55:41;6.10;1.00
3860;DHT22;1945;52.036;8.614;2024-03-23T05:58:07;6.20;1.00
3860;DHT22;1945;52.036;8.614;2024-03-23T06:00:34;6.20;1.00
3860;DHT22;1945;52.036;8.614;2024-03-23T06:03:00;6.20;1.00
3860;DHT22;1945;52.036;8.614;2024-03-23T06:05:28;6.20;1.00
3860;DHT22;1945;52.036;8.614;2024-03-23T06:07:53;6.20;1.00
3860;DHT22;1945;52.036;8.614;2024-03-23T06:10:20;6.20;1.00
3860;DHT22;1945;52.036;8.614;2024-03-23T06:12:46;6.20;1.00
3860;DHT22;1945;52.036;8.614;2024-03-23T06:15:14;6.30;1.00
3860;DHT22;1945;52.036;8.614;2024-03-23T06:17:40;6.30;1.00
3860;DHT22;1945;52.036;8.614;2024-03-23T06:20:07;6.30;1.00
3860;DHT22;1945;52.036;8.614;2024-03-23T06:22:34;6.30;1.00
3860;DHT22;1945;52.036;8.614;2024-03-23T06:25:01;6.30;1.00
3860;DHT22;1945;52.036;8.614;2024-03-23T06:27:27;6.30;1.00
3860;DHT22;1945;52.036;8.614;2024-03-23T06:29:54;6.40;1.00
3860;DHT22;1945;52.036;8.614;2024-03-23T06:32:20;6.40;1.00
3860;DHT22;1945;52.036;8.614;2024-03-23T06:34:47;6.50;1.00
3860;DHT22;1945;52.036;8.614;2024-03-23T06:37:13;6.50;1.00
3860;DHT22;1945;52.036;8.614;2024-03-23T06:39:41;6.50;1.00
3860;DHT22;1945;52.036;8.614;2024-03-23T06:42:06;6.60;1.00
3860;DHT22;1945;52.036;8.614;2024-03-23T06:44:34;6.60;1.00
3860;DHT22;1945;52.036;8.614;2024-03-23T06:47:00;6.60;1.00
3860;DHT22;1945;52.036;8.614;2024-03-23T06:49:28;6.60;1.00
3860;DHT22;1945;52.036;8.614;2024-03-23T06:51:54;6.60;1.00
3860;DHT22;1945;52.036;8.614;2024-03-23T06:54:20;6.70;1.00
3860;DHT22;1945;52.036;8.614;2024-03-23T06:56:47;6.70;1.00
3860;DHT22;1945;52.036;8.614;2024-03-23T06:59:14;6.70;99.90
3860;DHT22;1945;52.036;8.614;2024-03-23T07:01:40;6.80;99.90
3860;DHT22;1945;52.036;8.614;2024-03-23T07:04:07;6.90;99.90
3860;DHT22;1945;52.036;8.614;2024-03-23T07:06:42;6.90;99.90
3860;DHT22;1945;52.036;8.614;2024-03-23T07:09:09;6.90;99.90
3860;DHT22;1945;52.036;8.614;2024-03-23T07:11:35;7.00;99.90
3860;DHT22;1945;52.036;8.614;2024-03-23T07:14:03;7.20;99.90
3860;DHT22;1945;52.036;8.614;2024-03-23T07:16:29;7.10;1.00
3860;DHT22;1945;52.036;8.614;2024-03-23T07:18:56;7.20;1.00
3860;DHT22;1945;52.036;8.614;2024-03-23T07:21:22;7.30;1.00
3860;DHT22;1945;52.036;8.614;2024-03-23T07:23:49;7.10;1.00
3860;DHT22;1945;52.036;8.614;2024-03-23T07:26:14;7.10;1.00
3860;DHT22;1945;52.036;8.614;2024-03-23T07:28:42;7.30;1.00
3860;DHT22;1945;52.036;8.614;2024-03-23T07:31:11;7.50;1.00
3860;DHT22;1945;52.036;8.614;2024-03-23T07:33:42;7.90;1.00
3860;DHT22;1945;52.036;8.614;2024-03-23T07:36:08;8.10;1.00
3860;DHT22;1945;52.036;8.614;2024-03-23T07:38:35;8.20;1.00
3860;DHT22;1945;52.036;8.614;2024-03-23T07:41:05;8.40;1.00
3860;DHT22;1945;52.036;8.614;2024-03-23T07:43:31;8.60;99.90
3860;DHT22;1945;52.036;8.614;2024-03-23T07:45:57;8.40;1.00
3860;DHT22;1945;52.036;8.614;2024-03-23T07:48:25;8.10;99.90
3860;DHT22;1945;52.036;8.614;2024-03-23T07:50:58;8.00;1.00
3860;DHT22;1945;52.036;8.614;2024-03-23T07:53:25;8.80;1.00
3860;DHT22;1945;52.036;8.614;2024-03-23T07:55:55;8.90;99.90
3860;DHT22;1945;52.036;8.614;2024-03-23T07:58:22;8.50;99.90
3860;DHT22;1945;52.036;8.614;2024-03-23T08:00:48;8.40;1.00
3860;DHT22;1945;52.036;8.614;2024-03-23T08:03:15;8.50;99.90
3860;DHT22;1945;52.036;8.614;2024-03-23T08:05:42;8.50;99.90
3860;DHT22;1945;52.036;8.614;2024-03-23T08:08:08;8.50;99.90
3860;DHT22;1945;52.036;8.614;2024-03-23T08:10:34;8.60;99.90
3860;DHT22;1945;52.036;8.614;2024-03-23T08:13:01;8.50;99.90
3860;DHT22;1945;52.036;8.614;2024-03-23T08:15:26;9.00;99.90
3860;DHT22;1945;52.036;8.614;2024-03-23T08:17:53;9.40;99.90
3860;DHT22;1945;52.036;8.614;2024-03-23T08:20:19;9.70;99.90
3860;DHT22;1945;52.036;8.614;2024-03-23T08:22:47;9.50;1.00
3860;DHT22;1945;52.036;8.614;2024-03-23T08:25:13;9.00;1.00
3860;DHT22;1945;52.036;8.614;2024-03-23T08:27:39;9.10;26.60
3860;DHT22;1945;52.036;8.614;2024-03-23T08:30:06;9.30;1.00
3860;DHT22;1945;52.036;8.614;2024-03-23T08:32:33;9.20;1.00
3860;DHT22;1945;52.036;8.614;2024-03-23T08:34:59;9.80;1.00
3860;DHT22;1945;52.036;8.614;2024-03-23T08:37:26;9.80;1.00
3860;DHT22;1945;52.036;8.614;2024-03-23T08:39:54;9.90;1.00
3860;DHT22;1945;52.036;8.614;2024-03-23T08:42:20;9.80;1.00
3860;DHT22;1945;52.036;8.614;2024-03-23T08:44:46;9.70;1.00
3860;DHT22;1945;52.036;8.614;2024-03-23T08:47:15;9.80;1.00
3860;DHT22;1945;52.036;8.614;2024-03-23T08:49:40;9.90;1.00
3860;DHT22;1945;52.036;8.614;2024-03-23T08:52:09;9.50;1.00
3860;DHT22;1945;52.036;8.614;2024-03-23T08:54:35;9.80;1.00
3860;DHT22;1945;52.036;8.614;2024-03-23T08:57:03;9.40;1.00
3860;DHT22;1945;52.036;8.614;2024-03-23T08:59:29;9.30;1.00
3860;DHT22;1945;52.036;8.614;2024-03-23T09:01:56;9.20;1.00
3860;DHT22;1945;52.036;8.614;2024-03-23T09:04:21;9.20;1.00
3860;DHT22;1945;52.036;8.614;2024-03-23T09:06:48;9.40;1.00
3860;DHT22;1945;52.036;8.614;2024-03-23T09:09:14;9.80;1.00
3860;DHT22;1945;52.036;8.614;2024-03-23T09:11:40;9.60;1.00
3860;DHT22;1945;52.036;8.614;2024-03-23T09:14:07;10.00;1.00
3860;DHT22;1945;52.036;8.614;2024-03-23T09:16:34;10.00;99.90
3860;DHT22;1945;52.036;8.614;2024-03-23T09:19:00;9.70;99.90
3860;DHT22;1945;52.036;8.614;2024-03-23T09:21:27;9.50;99.90
3860;DHT22;1945;52.036;8.614;2024-03-23T09:23:53;9.20;99.90
3860;DHT22;1945;52.036;8.614;2024-03-23T09:26:20;9.00;99.90
3860;DHT22;1945;52.036;8.614;2024-03-23T09:28:48;8.90;99.90
3860;DHT22;1945;52.036;8.614;2024-03-23T09:31:16;8.90;99.90
3860;DHT22;1945;52.036;8.614;2024-03-23T09:33:42;8.80;99.90
3860;DHT22;1945;52.036;8.614;2024-03-23T09:36:09;8.90;1.00
3860;DHT22;1945;52.036;8.614;2024-03-23T09:38:35;9.20;1.00
3860;DHT22;1945;52.036;8.614;2024-03-23T09:41:07;9.60;99.90
3860;DHT22;1945;52.036;8.614;2024-03-23T09:43:33;9.70;99.90
3860;DHT22;1945;52.036;8.614;2024-03-23T09:46:00;9.40;99.90
3860;DHT22;1945;52.036;8.614;2024-03-23T09:48:28;9.00;1.00
3860;DHT22;1945;52.036;8.614;2024-03-23T09:50:55;8.90;1.00
3860;DHT22;1945;52.036;8.614;2024-03-23T09:53:21;8.70;1.00
3860;DHT22;1945;52.036;8.614;2024-03-23T09:55:48;8.50;1.00
3860;DHT22;1945;52.036;8.614;2024-03-23T09:58:15;8.60;1.00
3860;DHT22;1945;52.036;8.614;2024-03-23T10:00:42;9.10;1.00
3860;DHT22;1945;52.036;8.614;2024-03-23T10:03:08;9.90;1.00
3860;DHT22;1945;52.036;8.614;2024-03-23T10:05:38;10.20;1.00
3860;DHT22;1945;52.036;8.614;2024-03-23T10:08:17;10.30;99.90
3860;DHT22;1945;52.036;8.614;2024-03-23T10:10:45;10.70;99.90
3860;DHT22;1945;52.036;8.614;2024-03-23T10:13:11;11.00;99.90
3860;DHT22;1945;52.036;8.614;2024-03-23T10:15:55;10.90;99.90
3860;DHT22;1945;52.036;8.614;2024-03-23T10:18:21;10.20;1.00
3860;DHT22;1945;52.036;8.614;2024-03-23T10:20:57;9.90;1.00
3860;DHT22;1945;52.036;8.614;2024-03-23T10:23:32;9.70;5.90
3860;DHT22;1945;52.036;8.614;2024-03-23T10:26:13;9.60;59.00
3860;DHT22;1945;52.036;8.614;2024-03-23T10:28:54;10.30;65.90
3860;DHT22;1945;52.036;8.614;2024-03-23T10:31:22;10.30;6.20
3860;DHT22;1945;52.036;8.614;2024-03-23T10:33:48;10.20;33.60
3860;DHT22;1945;52.036;8.614;2024-03-23T10:36:18;10.10;1.00
3860;DHT22;1945;52.036;8.614;2024-03-23T10:38:46;10.00;86.70
3860;DHT22;1945;52.036;8.614;2024-03-23T10:41:13;9.50;75.10
3860;DHT22;1945;52.036;8.614;2024-03-23T10:43:39;9.40;65.50
3860;DHT22;1945;52.036;8.614;2024-03-23T10:46:06;9.10;99.90
3860;DHT22;1945;52.036;8.614;2024-03-23T10:48:32;9.40;99.90
3860;DHT22;1945;52.036;8.614;2024-03-23T10:50:59;9.20;99.90
3860;DHT22;1945;52.036;8.614;2024-03-23T10:53:28;9.40;99.90
3860;DHT22;1945;52.036;8.614;2024-03-23T10:55:55;9.50;99.90
3860;DHT22;1945;52.036;8.614;2024-03-23T10:58:24;9.50;99.90
3860;DHT22;1945;52.036;8.614;2024-03-23T11:00:52;9.80;99.90
3860;DHT22;1945;52.036;8.614;2024-03-23T11:03:30;10.10;99.90
3860;DHT22;1945;52.036;8.614;2024-03-23T11:05:57;10.50;99.90
3860;DHT22;1945;52.036;8.614;2024-03-23T11:08:35;10.10;96.70
3860;DHT22;1945;52.036;8.614;2024-03-23T11:11:13;10.20;99.90
3860;DHT22;1945;52.036;8.614;2024-03-23T11:13:39;10.10;82.80
3860;DHT22;1945;52.036;8.614;2024-03-23T11:16:13;10.10;13.50
3860;DHT22;1945;52.036;8.614;2024-03-23T11:18:39;10.50;44.50
3860;DHT22;1945;52.036;8.614;2024-03-23T11:21:07;10.70;1.00
3860;DHT22;1945;52.036;8.614;2024-03-23T11:23:34;10.90;24.60
3860;DHT22;1945;52.036;8.614;2024-03-23T11:26:00;10.80;1.00
3860;DHT22;1945;52.036;8.614;2024-03-23T11:28:26;11.10;1.00
3860;DHT22;1945;52.036;8.614;2024-03-23T11:30:53;10.90;1.00
3860;DHT22;1945;52.036;8.614;2024-03-23T11:33:19;10.00;1.00
3860;DHT22;1945;52.036;8.614;2024-03-23T11:35:45;9.60;1.00
3860;DHT22;1945;52.036;8.614;2024-03-23T11:38:12;8.90;1.00
3860;DHT22;1945;52.036;8.614;2024-03-23T11:40:41;8.60;1.00
3860;DHT22;1945;52.036;8.614;2024-03-23T11:43:08;8.70;1.00
3860;DHT22;1945;52.036;8.614;2024-03-23T11:45:37;8.80;1.00
3860;DHT22;1945;52.036;8.614;2024-03-23T11:48:10;8.90;1.00
3860;DHT22;1945;52.036;8.614;2024-03-23T11:50:38;8.80;1.00
3860;DHT22;1945;52.036;8.614;2024-03-23T11:53:13;9.10;1.00
3860;DHT22;1945;52.036;8.614;2024-03-23T11:55:43;8.80;1.00
3860;DHT22;1945;52.036;8.614;2024-03-23T11:58:09;8.80;1.00
3860;DHT22;1945;52.036;8.614;2024-03-23T12:00:36;8.70;1.00
3860;DHT22;1945;52.036;8.614;2024-03-23T12:03:03;8.80;1.00
3860;DHT22;1945;52.036;8.614;2024-03-23T12:05:30;9.10;99.90
3860;DHT22;1945;52.036;8.614;2024-03-23T12:08:15;9.40;1.00
3860;DHT22;1945;52.036;8.614;2024-03-23T12:10:48;9.40;1.00
3860;DHT22;1945;52.036;8.614;2024-03-23T12:13:15;9.20;1.00
3860;DHT22;1945;52.036;8.614;2024-03-23T12:15:43;9.10;1.00
3860;DHT22;1945;52.036;8.614;2024-03-23T12:18:09;9.00;1.00
3860;DHT22;1945;52.036;8.614;2024-03-23T12:20:37;9.30;1.00
3860;DHT22;1945;52.036;8.614;2024-03-23T12:23:07;9.40;1.00
3860;DHT22;1945;52.036;8.614;2024-03-23T12:25:34;9.40;1.00
3860;DHT22;1945;52.036;8.614;2024-03-23T12:28:02;9.60;1.00
3860;DHT22;1945;52.036;8.614;2024-03-23T12:30:32;9.20;42.60
3860;DHT22;1945;52.036;8.614;2024-03-23T12:32:58;9.40;14.00
3860;DHT22;1945;52.036;8.614;2024-03-23T12:35:25;9.30;1.00
3860;DHT22;1945;52.036;8.614;2024-03-23T12:37:50;9.30;1.00
3860;DHT22;1945;52.036;8.614;2024-03-23T12:40:17;8.90;25.90
3860;DHT22;1945;52.036;8.614;2024-03-23T12:42:43;9.10;1.00
3860;DHT22;1945;52.036;8.614;2024-03-23T12:45:10;8.90;1.00
3860;DHT22;1945;52.036;8.614;2024-03-23T12:47:36;9.30;1.00
3860;DHT22;1945;52.036;8.614;2024-03-23T12:50:03;9.50;1.00
3860;DHT22;1945;52.036;8.614;2024-03-23T12:52:29;9.30;1.00
3860;DHT22;1945;52.036;8.614;2024-03-23T12:54:56;9.00;1.00
3860;DHT22;1945;52.036;8.614;2024-03-23T12:57:23;9.00;1.00
3860;DHT22;1945;52.036;8.614;2024-03-23T12:59:50;9.10;1.00
3860;DHT22;1945;52.036;8.614;2024-03-23T13:02:18;9.20;1.00
3860;DHT22;1945;52.036;8.614;2024-03-23T13:04:46;9.20;1.00
3860;DHT22;1945;52.036;8.614;2024-03-23T13:07:13;9.30;1.00
3860;DHT22;1945;52.036;8.614;2024-03-23T13:09:39;9.50;1.00
3860;DHT22;1945;52.036;8.614;2024-03-23T13:12:06;9.60;1.00
3860;DHT22;1945;52.036;8.614;2024-03-23T13:14:33;9.60;1.00
3860;DHT22;1945;52.036;8.614;2024-03-23T13:16:59;9.70;1.00
3860;DHT22;1945;52.036;8.614;2024-03-23T13:19:27;9.70;1.00
3860;DHT22;1945;52.036;8.614;2024-03-23T13:21:56;9.90;1.00
3860;DHT22;1945;52.036;8.614;2024-03-23T13:24:23;10.10;1.00
3860;DHT22;1945;52.036;8.614;2024-03-23T13:26:50;9.70;1.00
3860;DHT22;1945;52.036;8.614;2024-03-23T13:29:17;9.80;1.00
3860;DHT22;1945;52.036;8.614;2024-03-23T13:31:43;9.20;1.00
3860;DHT22;1945;52.036;8.614;2024-03-23T13:34:09;8.80;1.00
3860;DHT22;1945;52.036;8.614;2024-03-23T13:36:36;8.60;1.00
3860;DHT22;1945;52.036;8.614;2024-03-23T13:39:03;8.10;1.00
3860;DHT22;1945;52.036;8.614;2024-03-23T13:41:37;8.40;1.00
3860;DHT22;1945;52.036;8.614;2024-03-23T13:44:03;8.20;1.00
3860;DHT22;1945;52.036;8.614;2024-03-23T13:46:29;8.10;1.90
3860;DHT22;1945;52.036;8.614;2024-03-23T13:48:55;8.00;98.90
3860;DHT22;1945;52.036;8.614;2024-03-23T13:51:23;7.90;99.90
3860;DHT22;1945;52.036;8.614;2024-03-23T13:53:51;7.70;1.00
3860;DHT22;1945;52.036;8.614;2024-03-23T13:56:18;7.70;1.00
3860;DHT22;1945;52.036;8.614;2024-03-23T13:58:44;7.90;1.00
3860;DHT22;1945;52.036;8.614;2024-03-23T14:01:15;7.50;1.00
3860;DHT22;1945;52.036;8.614;2024-03-23T14:03:41;7.60;1.00
3860;DHT22;1945;52.036;8.614;2024-03-23T14:06:09;8.00;1.00
3860;DHT22;1945;52.036;8.614;2024-03-23T14:08:35;8.30;1.00
3860;DHT22;1945;52.036;8.614;2024-03-23T14:11:06;8.50;1.00
3860;DHT22;1945;52.036;8.614;2024-03-23T14:13:32;8.60;1.00
3860;DHT22;1945;52.036;8.614;2024-03-23T14:15:59;8.70;99.90
3860;DHT22;1945;52.036;8.614;2024-03-23T14:18:24;8.70;99.90
3860;DHT22;1945;52.036;8.614;2024-03-23T14:20:52;8.80;99.90
3860;DHT22;1945;52.036;8.614;2024-03-23T14:23:18;8.90;81.40
3860;DHT22;1945;52.036;8.614;2024-03-23T14:25:45;9.10;30.00
3860;DHT22;1945;52.036;8.614;2024-03-23T14:28:12;9.00;41.30
3860;DHT22;1945;52.036;8.614;2024-03-23T14:30:42;8.90;99.90
3860;DHT22;1945;52.036;8.614;2024-03-23T14:33:08;8.80;99.90
3860;DHT22;1945;52.036;8.614;2024-03-23T14:35:34;8.30;99.90
3860;DHT22;1945;52.036;8.614;2024-03-23T14:38:00;8.00;1.00
3860;DHT22;1945;52.036;8.614;2024-03-23T14:40:28;7.50;2.60
3860;DHT22;1945;52.036;8.614;2024-03-23T14:42:54;7.30;99.90
3860;DHT22;1945;52.036;8.614;2024-03-23T14:45:22;7.30;99.90
3860;DHT22;1945;52.036;8.614;2024-03-23T14:47:49;7.20;1.00
3860;DHT22;1945;52.036;8.614;2024-03-23T14:50:16;7.40;1.00
3860;DHT22;1945;52.036;8.614;2024-03-23T14:52:43;7.60;1.00
3860;DHT22;1945;52.036;8.614;2024-03-23T14:55:10;7.80;1.00
3860;DHT22;1945;52.036;8.614;2024-03-23T14:57:36;7.80;1.00
3860;DHT22;1945;52.036;8.614;2024-03-23T15:00:06;7.50;1.00
3860;DHT22;1945;52.036;8.614;2024-03-23T15:02:34;7.30;1.00
3860;DHT22;1945;52.036;8.614;2024-03-23T15:05:01;7.20;1.00
3860;DHT22;1945;52.036;8.614;2024-03-23T15:07:27;6.90;1.00
3860;DHT22;1945;52.036;8.614;2024-03-23T15:09:54;6.90;99.90
3860;DHT22;1945;52.036;8.614;2024-03-23T15:12:20;6.70;99.90
3860;DHT22;1945;52.036;8.614;2024-03-23T15:14:47;6.60;99.90
3860;DHT22;1945;52.036;8.614;2024-03-23T15:17:13;6.50;78.20
3860;DHT22;1945;52.036;8.614;2024-03-23T15:19:41;6.40;99.90
3860;DHT22;1945;52.036;8.614;2024-03-23T15:22:08;6.60;99.90
3860;DHT22;1945;52.036;8.614;2024-03-23T15:24:35;6.50;99.90
3860;DHT22;1945;52.036;8.614;2024-03-23T15:27:01;6.80;78.00
3860;DHT22;1945;52.036;8.614;2024-03-23T15:29:28;7.30;99.90
3860;DHT22;1945;52.036;8.614;2024-03-23T15:31:54;7.50;1.00
3860;DHT22;1945;52.036;8.614;2024-03-23T15:34:21;7.70;1.00
3860;DHT22;1945;52.036;8.614;2024-03-23T15:36:48;7.70;1.00
3860;DHT22;1945;52.036;8.614;2024-03-23T15:39:16;7.70;1.00
3860;DHT22;1945;52.036;8.614;2024-03-23T15:41:44;7.60;1.00
3860;DHT22;1945;52.036;8.614;2024-03-23T15:44:10;7.70;1.00
3860;DHT22;1945;52.036;8.614;2024-03-23T15:46:36;7.70;1.00
3860;DHT22;1945;52.036;8.614;2024-03-23T15:49:03;7.70;1.00
3860;DHT22;1945;52.036;8.614;2024-03-23T15:51:29;7.70;1.00
3860;DHT22;1945;52.036;8.614;2024-03-23T15:53:59;7.70;1.00
3860;DHT22;1945;52.036;8.614;2024-03-23T15:56:25;7.70;1.00
3860;DHT22;1945;52.036;8.614;2024-03-23T15:58:52;7.70;1.00
3860;DHT22;1945;52.036;8.614;2024-03-23T16:01:19;7.80;1.00
3860;DHT22;1945;52.036;8.614;2024-03-23T16:03:45;7.80;1.00
3860;DHT22;1945;52.036;8.614;2024-03-23T16:06:11;7.80;1.00
3860;DHT22;1945;52.036;8.614;2024-03-23T16:08:37;7.80;1.00
3860;DHT22;1945;52.036;8.614;2024-03-23T16:11:06;7.60;1.00
3860;DHT22;1945;52.036;8.614;2024-03-23T16:13:33;7.70;1.00
3860;DHT22;1945;52.036;8.614;2024-03-23T16:16:01;7.70;1.00
3860;DHT22;1945;52.036;8.614;2024-03-23T16:18:29;7.70;1.00
3860;DHT22;1945;52.036;8.614;2024-03-23T16:20:57;7.70;1.00
3860;DHT22;1945;52.036;8.614;2024-03-23T16:23:23;7.70;1.00
3860;DHT22;1945;52.036;8.614;2024-03-23T16:25:50;7.90;1.00
3860;DHT22;1945;52.036;8.614;2024-03-23T16:28:23;7.70;1.00
3860;DHT22;1945;52.036;8.614;2024-03-23T16:30:57;7.70;1.00
3860;DHT22;1945;52.036;8.614;2024-03-23T16:33:23;7.60;1.00
3860;DHT22;1945;52.036;8.614;2024-03-23T16:35:57;7.60;1.00
3860;DHT22;1945;52.036;8.614;2024-03-23T16:38:23;7.50;1.00
3860;DHT22;1945;52.036;8.614;2024-03-23T16:40:54;7.60;1.00
3860;DHT22;1945;52.036;8.614;2024-03-23T16:43:20;7.60;1.00
3860;DHT22;1945;52.036;8.614;2024-03-23T16:45:59;7.60;1.00
3860;DHT22;1945;52.036;8.614;2024-03-23T16:48:26;7.40;1.00
3860;DHT22;1945;52.036;8.614;2024-03-23T16:50:53;7.00;1.00
3860;DHT22;1945;52.036;8.614;2024-03-23T16:53:19;6.90;93.90
3860;DHT22;1945;52.036;8.614;2024-03-23T16:55:46;6.80;1.00
3860;DHT22;1945;52.036;8.614;2024-03-23T16:58:12;6.90;1.00
3860;DHT22;1945;52.036;8.614;2024-03-23T17:00:39;7.10;1.00
3860;DHT22;1945;52.036;8.614;2024-03-23T17:03:09;7.60;1.00
3860;DHT22;1945;52.036;8.614;2024-03-23T17:05:36;7.10;1.00
3860;DHT22;1945;52.036;8.614;2024-03-23T17:08:02;7.10;1.00
3860;DHT22;1945;52.036;8.614;2024-03-23T17:10:29;7.00;1.00
3860;DHT22;1945;52.036;8.614;2024-03-23T17:12:55;6.90;1.00
3860;DHT22;1945;52.036;8.614;2024-03-23T17:15:22;6.80;1.00
3860;DHT22;1945;52.036;8.614;2024-03-23T17:17:47;7.10;1.00